sensor_id;sensor_type;location;lat;lon;timestamp;P1;durP1;ratioP1;P2;durP2;ratioP2
39674;SDS011;27790;50.840;4.386;2024-01-10T00:01:16;11.55;;;4.93;;
39674;SDS011;27790;50.840;4.386;2024-01-10T00:03:42;8.98;;;4.55;;
39674;SDS011;27790;50.840;4.386;2024-01-10T00:06:09;10.75;;;5.82;;
39674;SDS011;27790;50.840;4.386;2024-01-10T00:08:35;13.23;;;5.68;;
39674;SDS011;27790;50.840;4.386;2024-01-10T00:11:01;8.20;;;4.20;;
39674;SDS011;27790;50.840;4.386;2024-01-10T00:13:26;8.75;;;4.53;;
39674;SDS011;27790;50.840;4.386;2024-01-10T00:15:52;12.20;;;6.20;;
39674;SDS011;27790;50.840;4.386;2024-01-10T00:18:20;17.77;;;6.22;;
39674;SDS011;27790;50.840;4.386;2024-01-10T00:20:46;12.35;;;5.88;;
39674;SDS011;27790;50.840;4.386;2024-01-10T00:23:12;8.30;;;5.03;;
39674;SDS011;27790;50.840;4.386;2024-01-10T00:25:38;11.93;;;4.85;;
39674;SDS011;27790;50.840;4.386;2024-01-10T00:28:04;8.13;;;4.63;;
39674;SDS011;27790;50.840;4.386;2024-01-10T00:30:29;9.55;;;4.95;;
39674;SDS011;27790;50.840;4.386;2024-01-10T00:32:55;10.70;;;4.85;;
39674;SDS011;27790;50.840;4.386;2024-01-10T00:35:20;10.43;;;5.05;;
39674;SDS011;27790;50.840;4.386;2024-01-10T00:37:46;11.50;;;5.97;;
39674;SDS011;27790;50.840;4.386;2024-01-10T00:40:12;8.38;;;4.70;;
39674;SDS011;27790;50.840;4.386;2024-01-10T00:42:37;9.57;;;4.70;;
39674;SDS011;27790;50.840;4.386;2024-01-10T00:45:03;7.95;;;4.15;;
39674;SDS011;27790;50.840;4.386;2024-01-10T00:47:29;9.27;;;4.80;;
39674;SDS011;27790;50.840;4.386;2024-01-10T00:49:55;12.25;;;5.63;;
39674;SDS011;27790;50.840;4.386;2024-01-10T00:52:21;16.63;;;5.93;;
39674;SDS011;27790;50.840;4.386;2024-01-10T00:54:46;15.32;;;4.85;;
39674;SDS011;27790;50.840;4.386;2024-01-10T00:57:12;9.48;;;4.57;;
39674;SDS011;27790;50.840;4.386;2024-01-10T00:59:37;13.20;;;5.20;;
39674;SDS011;27790;50.840;4.386;2024-01-10T01:02:03;11.30;;;5.28;;
39674;SDS011;27790;50.840;4.386;2024-01-10T01:04:28;12.73;;;5.38;;
39674;SDS011;27790;50.840;4.386;2024-01-10T01:06:54;11.30;;;5.25;;
39674;SDS011;27790;50.840;4.386;2024-01-10T01:09:19;10.00;;;6.30;;
39674;SDS011;27790;50.840;4.386;2024-01-10T01:11:45;11.63;;;6.28;;
39674;SDS011;27790;50.840;4.386;2024-01-10T01:14:10;11.85;;;5.90;;
39674;SDS011;27790;50.840;4.386;2024-01-10T01:16:36;13.52;;;5.05;;
39674;SDS011;27790;50.840;4.386;2024-01-10T01:19:01;14.35;;;4.93;;
39674;SDS011;27790;50.840;4.386;2024-01-10T01:21:27;9.50;;;5.07;;
39674;SDS011;27790;50.840;4.386;2024-01-10T01:23:54;11.30;;;5.03;;
39674;SDS011;27790;50.840;4.386;2024-01-10T01:26:19;10.73;;;4.93;;
39674;SDS011;27790;50.840;4.386;2024-01-10T01:28:45;7.80;;;4.07;;
39674;SDS011;27790;50.840;4.386;2024-01-10T01:31:10;9.75;;;4.90;;
39674;SDS011;27790;50.840;4.386;2024-01-10T01:33:36;10.18;;;5.47;;
39674;SDS011;27790;50.840;4.386;2024-01-10T01:36:04;9.88;;;5.68;;
39674;SDS011;27790;50.840;4.386;2024-01-10T01:38:30;8.48;;;5.25;;
39674;SDS011;27790;50.840;4.386;2024-01-10T01:40:55;10.35;;;4.60;;
39674;SDS011;27790;50.840;4.386;2024-01-10T01:43:24;10.48;;;5.57;;
39674;SDS011;27790;50.840;4.386;2024-01-10T01:45:52;9.77;;;4.93;;
39674;SDS011;27790;50.840;4.386;2024-01-10T01:48:19;8.88;;;4.60;;
39674;SDS011;27790;50.840;4.386;2024-01-10T01:50:45;14.68;;;6.18;;
39674;SDS011;27790;50.840;4.386;2024-01-10T01:53:14;10.18;;;4.72;;
39674;SDS011;27790;50.840;4.386;2024-01-10T01:55:41;8.43;;;6.00;;
39674;SDS011;27790;50.840;4.386;2024-01-10T01:58:08;13.73;;;5.05;;
39674;SDS011;27790;50.840;4.386;2024-01-10T02:00:34;11.70;;;5.63;;
39674;SDS011;27790;50.840;4.386;2024-01-10T02:03:00;10.02;;;4.72;;
39674;SDS011;27790;50.840;4.386;2024-01-10T02:05:26;10.43;;;6.05;;
39674;SDS011;27790;50.840;4.386;2024-01-10T02:07:52;9.32;;;4.43;;
39674;SDS011;27790;50.840;4.386;2024-01-10T02:10:19;10.93;;;5.38;;
39674;SDS011;27790;50.840;4.386;2024-01-10T02:12:44;12.07;;;5.93;;
39674;SDS011;27790;50.840;4.386;2024-01-10T02:15:10;11.05;;;5.95;;
39674;SDS011;27790;50.840;4.386;2024-01-10T02:17:37;14.65;;;6.47;;
39674;SDS011;27790;50.840;4.386;2024-01-10T02:20:09;12.00;;;5.75;;
39674;SDS011;27790;50.840;4.386;2024-01-10T02:22:36;11.45;;;5.70;;
39674;SDS011;27790;50.840;4.386;2024-01-10T02:25:02;12.85;;;5.75;;
39674;SDS011;27790;50.840;4.386;2024-01-10T02:27:30;11.43;;;5.15;;
39674;SDS011;27790;50.840;4.386;2024-01-10T02:29:55;12.38;;;6.28;;
39674;SDS011;27790;50.840;4.386;2024-01-10T02:32:22;9.25;;;4.75;;
39674;SDS011;27790;50.840;4.386;2024-01-10T02:34:48;10.75;;;5.22;;
39674;SDS011;27790;50.840;4.386;2024-01-10T02:37:14;12.00;;;5.15;;
39674;SDS011;27790;50.840;4.386;2024-01-10T02:39:39;10.57;;;4.85;;
39674;SDS011;27790;50.840;4.386;2024-01-10T02:42:05;12.32;;;5.90;;
39674;SDS011;27790;50.840;4.386;2024-01-10T02:44:30;10.63;;;5.25;;
39674;SDS011;27790;50.840;4.386;2024-01-10T02:46:56;10.68;;;5.70;;
39674;SDS011;27790;50.840;4.386;2024-01-10T02:49:21;10.48;;;4.95;;
39674;SDS011;27790;50.840;4.386;2024-01-10T02:51:47;11.80;;;5.32;;
39674;SDS011;27790;50.840;4.386;2024-01-10T02:54:13;11.57;;;5.43;;
39674;SDS011;27790;50.840;4.386;2024-01-10T02:56:38;13.25;;;5.72;;
39674;SDS011;27790;50.840;4.386;2024-01-10T02:59:04;15.13;;;6.95;;
39674;SDS011;27790;50.840;4.386;2024-01-10T03:01:29;14.45;;;5.65;;
39674;SDS011;27790;50.840;4.386;2024-01-10T03:03:55;10.68;;;5.28;;
39674;SDS011;27790;50.840;4.386;2024-01-10T03:06:21;11.70;;;6.00;;
39674;SDS011;27790;50.840;4.386;2024-01-10T03:08:46;12.55;;;5.85;;
39674;SDS011;27790;50.840;4.386;2024-01-10T03:11:12;10.73;;;5.93;;
39674;SDS011;27790;50.840;4.386;2024-01-10T03:13:37;14.48;;;6.13;;
39674;SDS011;27790;50.840;4.386;2024-01-10T03:16:04;10.18;;;5.13;;
39674;SDS011;27790;50.840;4.386;2024-01-10T03:18:29;11.95;;;5.85;;
39674;SDS011;27790;50.840;4.386;2024-01-10T03:20:55;8.93;;;5.53;;
39674;SDS011;27790;50.840;4.386;2024-01-10T03:23:21;12.65;;;5.28;;
39674;SDS011;27790;50.840;4.386;2024-01-10T03:25:47;12.27;;;5.32;;
39674;SDS011;27790;50.840;4.386;2024-01-10T03:28:16;11.85;;;5.00;;
39674;SDS011;27790;50.840;4.386;2024-01-10T03:30:44;10.52;;;5.03;;
39674;SDS011;27790;50.840;4.386;2024-01-10T03:33:10;16.55;;;5.05;;
39674;SDS011;27790;50.840;4.386;2024-01-10T03:35:36;11.60;;;5.50;;
39674;SDS011;27790;50.840;4.386;2024-01-10T03:38:02;11.27;;;5.28;;
39674;SDS011;27790;50.840;4.386;2024-01-10T03:40:27;12.45;;;5.32;;
39674;SDS011;27790;50.840;4.386;2024-01-10T03:42:53;15.38;;;5.95;;
39674;SDS011;27790;50.840;4.386;2024-01-10T03:45:18;9.40;;;4.97;;
39674;SDS011;27790;50.840;4.386;2024-01-10T03:47:47;9.55;;;5.30;;
39674;SDS011;27790;50.840;4.386;2024-01-10T03:50:18;10.75;;;5.53;;
39674;SDS011;27790;50.840;4.386;2024-01-10T03:52:44;11.10;;;5.00;;
39674;SDS011;27790;50.840;4.386;2024-01-10T03:55:11;12.98;;;5.50;;
39674;SDS011;27790;50.840;4.386;2024-01-10T03:57:38;10.90;;;5.47;;
39674;SDS011;27790;50.840;4.386;2024-01-10T04:00:04;17.52;;;5.28;;
39674;SDS011;27790;50.840;4.386;2024-01-10T04:02:31;9.63;;;5.57;;
39674;SDS011;27790;50.840;4.386;2024-01-10T04:04:57;12.77;;;5.70;;
39674;SDS011;27790;50.840;4.386;2024-01-10T04:07:23;9.98;;;5.38;;
39674;SDS011;27790;50.840;4.386;2024-01-10T04:09:48;11.43;;;5.78;;
39674;SDS011;27790;50.840;4.386;2024-01-10T04:14:43;10.57;;;5.18;;
39674;SDS011;27790;50.840;4.386;2024-01-10T04:17:09;15.15;;;5.85;;
39674;SDS011;27790;50.840;4.386;2024-01-10T04:19:34;12.45;;;5.70;;
39674;SDS011;27790;50.840;4.386;2024-01-10T04:22:00;11.85;;;6.00;;
39674;SDS011;27790;50.840;4.386;2024-01-10T04:24:26;10.50;;;5.20;;
39674;SDS011;27790;50.840;4.386;2024-01-10T04:26:51;16.67;;;6.80;;
39674;SDS011;27790;50.840;4.386;2024-01-10T04:29:17;11.52;;;5.70;;
39674;SDS011;27790;50.840;4.386;2024-01-10T04:31:42;11.85;;;5.57;;
39674;SDS011;27790;50.840;4.386;2024-01-10T04:34:08;11.65;;;5.53;;
39674;SDS011;27790;50.840;4.386;2024-01-10T04:36:33;13.38;;;5.18;;
39674;SDS011;27790;50.840;4.386;2024-01-10T04:38:59;11.15;;;5.35;;
39674;SDS011;27790;50.840;4.386;2024-01-10T04:41:24;7.75;;;4.72;;
39674;SDS011;27790;50.840;4.386;2024-01-10T04:43:51;11.60;;;5.45;;
39674;SDS011;27790;50.840;4.386;2024-01-10T04:46:16;11.02;;;5.78;;
39674;SDS011;27790;50.840;4.386;2024-01-10T04:48:42;9.82;;;5.25;;
39674;SDS011;27790;50.840;4.386;2024-01-10T04:51:07;11.18;;;5.25;;
39674;SDS011;27790;50.840;4.386;2024-01-10T04:53:33;13.38;;;5.68;;
39674;SDS011;27790;50.840;4.386;2024-01-10T04:55:59;12.07;;;5.60;;
39674;SDS011;27790;50.840;4.386;2024-01-10T04:58:24;9.75;;;4.97;;
39674;SDS011;27790;50.840;4.386;2024-01-10T05:00:50;10.15;;;5.13;;
39674;SDS011;27790;50.840;4.386;2024-01-10T05:03:16;10.10;;;4.85;;
39674;SDS011;27790;50.840;4.386;2024-01-10T05:05:41;12.02;;;6.35;;
39674;SDS011;27790;50.840;4.386;2024-01-10T05:08:07;12.88;;;4.75;;
39674;SDS011;27790;50.840;4.386;2024-01-10T05:10:32;14.23;;;6.43;;
39674;SDS011;27790;50.840;4.386;2024-01-10T05:12:58;13.00;;;6.03;;
39674;SDS011;27790;50.840;4.386;2024-01-10T05:15:23;12.35;;;5.63;;
39674;SDS011;27790;50.840;4.386;2024-01-10T05:17:49;22.63;;;6.75;;
39674;SDS011;27790;50.840;4.386;2024-01-10T05:20:15;13.65;;;5.65;;
39674;SDS011;27790;50.840;4.386;2024-01-10T05:22:42;11.07;;;6.20;;
39674;SDS011;27790;50.840;4.386;2024-01-10T05:25:08;13.20;;;6.10;;
39674;SDS011;27790;50.840;4.386;2024-01-10T05:27:33;12.13;;;5.43;;
39674;SDS011;27790;50.840;4.386;2024-01-10T05:29:59;15.43;;;6.90;;
39674;SDS011;27790;50.840;4.386;2024-01-10T05:32:25;10.25;;;5.47;;
39674;SDS011;27790;50.840;4.386;2024-01-10T05:34:52;10.35;;;5.78;;
39674;SDS011;27790;50.840;4.386;2024-01-10T05:37:18;12.82;;;5.50;;
39674;SDS011;27790;50.840;4.386;2024-01-10T05:39:44;13.48;;;6.63;;
39674;SDS011;27790;50.840;4.386;2024-01-10T05:42:09;12.52;;;5.90;;
39674;SDS011;27790;50.840;4.386;2024-01-10T05:44:36;13.38;;;5.47;;
39674;SDS011;27790;50.840;4.386;2024-01-10T05:47:01;11.60;;;5.95;;
39674;SDS011;27790;50.840;4.386;2024-01-10T05:49:27;11.23;;;4.82;;
39674;SDS011;27790;50.840;4.386;2024-01-10T05:51:53;11.48;;;5.68;;
39674;SDS011;27790;50.840;4.386;2024-01-10T05:54:19;10.50;;;5.53;;
39674;SDS011;27790;50.840;4.386;2024-01-10T05:56:45;10.45;;;5.40;;
39674;SDS011;27790;50.840;4.386;2024-01-10T05:59:10;16.20;;;6.15;;
39674;SDS011;27790;50.840;4.386;2024-01-10T06:01:41;13.88;;;5.65;;
39674;SDS011;27790;50.840;4.386;2024-01-10T06:04:06;14.38;;;6.72;;
39674;SDS011;27790;50.840;4.386;2024-01-10T06:06:32;13.98;;;6.28;;
39674;SDS011;27790;50.840;4.386;2024-01-10T06:08:57;14.00;;;5.88;;
39674;SDS011;27790;50.840;4.386;2024-01-10T06:11:23;13.82;;;5.25;;
39674;SDS011;27790;50.840;4.386;2024-01-10T06:13:49;9.93;;;5.30;;
39674;SDS011;27790;50.840;4.386;2024-01-10T06:16:14;11.68;;;4.97;;
39674;SDS011;27790;50.840;4.386;2024-01-10T06:18:40;12.55;;;4.93;;
39674;SDS011;27790;50.840;4.386;2024-01-10T06:21:06;10.32;;;5.65;;
39674;SDS011;27790;50.840;4.386;2024-01-10T06:23:31;11.10;;;5.13;;
39674;SDS011;27790;50.840;4.386;2024-01-10T06:25:57;13.40;;;6.05;;
39674;SDS011;27790;50.840;4.386;2024-01-10T06:28:22;13.98;;;5.82;;
39674;SDS011;27790;50.840;4.386;2024-01-10T06:30:48;13.25;;;5.80;;
39674;SDS011;27790;50.840;4.386;2024-01-10T06:33:14;8.95;;;5.88;;
39674;SDS011;27790;50.840;4.386;2024-01-10T06:35:41;11.00;;;4.88;;
39674;SDS011;27790;50.840;4.386;2024-01-10T06:38:10;9.43;;;5.50;;
39674;SDS011;27790;50.840;4.386;2024-01-10T06:40:35;11.45;;;5.80;;
39674;SDS011;27790;50.840;4.386;2024-01-10T06:43:02;11.60;;;6.03;;
39674;SDS011;27790;50.840;4.386;2024-01-10T06:45:28;12.05;;;6.25;;
39674;SDS011;27790;50.840;4.386;2024-01-10T06:47:54;12.18;;;6.18;;
39674;SDS011;27790;50.840;4.386;2024-01-10T06:50:20;11.27;;;5.85;;
39674;SDS011;27790;50.840;4.386;2024-01-10T06:52:46;13.65;;;5.70;;
39674;SDS011;27790;50.840;4.386;2024-01-10T06:55:13;10.90;;;5.55;;
39674;SDS011;27790;50.840;4.386;2024-01-10T06:57:38;11.68;;;5.30;;
39674;SDS011;27790;50.840;4.386;2024-01-10T07:00:04;14.88;;;6.55;;
39674;SDS011;27790;50.840;4.386;2024-01-10T07:02:35;12.68;;;6.00;;
39674;SDS011;27790;50.840;4.386;2024-01-10T07:05:06;14.20;;;6.07;;
39674;SDS011;27790;50.840;4.386;2024-01-10T07:07:33;10.18;;;5.13;;
39674;SDS011;27790;50.840;4.386;2024-01-10T07:10:00;12.23;;;5.10;;
39674;SDS011;27790;50.840;4.386;2024-01-10T07:14:51;11.80;;;6.28;;
39674;SDS011;27790;50.840;4.386;2024-01-10T07:17:16;13.20;;;7.10;;
39674;SDS011;27790;50.840;4.386;2024-01-10T07:19:42;9.20;;;5.05;;
39674;SDS011;27790;50.840;4.386;2024-01-10T07:22:08;10.63;;;5.22;;
39674;SDS011;27790;50.840;4.386;2024-01-10T07:24:35;14.10;;;6.32;;
39674;SDS011;27790;50.840;4.386;2024-01-10T07:27:00;14.50;;;5.50;;
39674;SDS011;27790;50.840;4.386;2024-01-10T07:29:26;9.70;;;5.28;;
39674;SDS011;27790;50.840;4.386;2024-01-10T07:31:51;17.15;;;5.30;;
39674;SDS011;27790;50.840;4.386;2024-01-10T07:34:17;17.98;;;5.78;;
39674;SDS011;27790;50.840;4.386;2024-01-10T07:36:43;9.27;;;4.85;;
39674;SDS011;27790;50.840;4.386;2024-01-10T07:39:09;13.23;;;5.65;;
39674;SDS011;27790;50.840;4.386;2024-01-10T07:41:34;13.32;;;5.57;;
39674;SDS011;27790;50.840;4.386;2024-01-10T07:44:00;11.98;;;6.18;;
39674;SDS011;27790;50.840;4.386;2024-01-10T07:46:25;13.10;;;6.40;;
39674;SDS011;27790;50.840;4.386;2024-01-10T07:48:52;10.63;;;5.35;;
39674;SDS011;27790;50.840;4.386;2024-01-10T07:51:17;11.13;;;5.05;;
39674;SDS011;27790;50.840;4.386;2024-01-10T07:53:44;10.45;;;5.78;;
39674;SDS011;27790;50.840;4.386;2024-01-10T07:56:10;10.30;;;5.85;;
39674;SDS011;27790;50.840;4.386;2024-01-10T07:58:37;17.27;;;6.32;;
39674;SDS011;27790;50.840;4.386;2024-01-10T08:01:03;11.77;;;5.85;;
39674;SDS011;27790;50.840;4.386;2024-01-10T08:03:29;9.68;;;4.97;;
39674;SDS011;27790;50.840;4.386;2024-01-10T08:05:54;18.60;;;7.10;;
39674;SDS011;27790;50.840;4.386;2024-01-10T08:08:20;16.13;;;5.85;;
39674;SDS011;27790;50.840;4.386;2024-01-10T08:10:46;14.20;;;5.80;;
39674;SDS011;27790;50.840;4.386;2024-01-10T08:13:11;15.80;;;5.97;;
39674;SDS011;27790;50.840;4.386;2024-01-10T08:15:37;12.68;;;5.70;;
39674;SDS011;27790;50.840;4.386;2024-01-10T08:18:02;9.90;;;5.28;;
39674;SDS011;27790;50.840;4.386;2024-01-10T08:20:28;11.15;;;6.07;;
39674;SDS011;27790;50.840;4.386;2024-01-10T08:22:54;10.30;;;6.20;;
39674;SDS011;27790;50.840;4.386;2024-01-10T08:25:19;12.88;;;6.22;;
39674;SDS011;27790;50.840;4.386;2024-01-10T08:27:45;9.57;;;5.53;;
39674;SDS011;27790;50.840;4.386;2024-01-10T08:30:11;16.73;;;6.60;;
39674;SDS011;27790;50.840;4.386;2024-01-10T08:32:36;10.73;;;5.97;;
39674;SDS011;27790;50.840;4.386;2024-01-10T08:35:05;14.13;;;6.65;;
39674;SDS011;27790;50.840;4.386;2024-01-10T08:37:33;12.73;;;5.00;;
39674;SDS011;27790;50.840;4.386;2024-01-10T08:39:59;14.32;;;5.95;;
39674;SDS011;27790;50.840;4.386;2024-01-10T08:42:26;11.35;;;5.70;;
39674;SDS011;27790;50.840;4.386;2024-01-10T08:44:52;20.08;;;6.18;;
39674;SDS011;27790;50.840;4.386;2024-01-10T08:47:18;18.73;;;6.65;;
39674;SDS011;27790;50.840;4.386;2024-01-10T08:49:44;9.57;;;5.10;;
39674;SDS011;27790;50.840;4.386;2024-01-10T08:52:10;12.32;;;5.78;;
39674;SDS011;27790;50.840;4.386;2024-01-10T08:54:36;14.18;;;6.38;;
39674;SDS011;27790;50.840;4.386;2024-01-10T08:57:02;16.10;;;5.70;;
39674;SDS011;27790;50.840;4.386;2024-01-10T08:59:28;12.05;;;5.93;;
39674;SDS011;27790;50.840;4.386;2024-01-10T09:01:54;12.02;;;6.28;;
39674;SDS011;27790;50.840;4.386;2024-01-10T09:04:19;11.68;;;6.60;;
39674;SDS011;27790;50.840;4.386;2024-01-10T09:06:45;13.15;;;5.82;;
39674;SDS011;27790;50.840;4.386;2024-01-10T09:09:11;12.57;;;5.65;;
39674;SDS011;27790;50.840;4.386;2024-01-10T09:11:38;14.65;;;6.50;;
39674;SDS011;27790;50.840;4.386;2024-01-10T09:14:03;14.77;;;6.38;;
39674;SDS011;27790;50.840;4.386;2024-01-10T09:16:29;19.15;;;6.88;;
39674;SDS011;27790;50.840;4.386;2024-01-10T09:18:54;11.07;;;6.35;;
39674;SDS011;27790;50.840;4.386;2024-01-10T09:21:22;17.13;;;7.50;;
39674;SDS011;27790;50.840;4.386;2024-01-10T09:23:48;12.65;;;6.20;;
39674;SDS011;27790;50.840;4.386;2024-01-10T09:26:16;14.23;;;6.13;;
39674;SDS011;27790;50.840;4.386;2024-01-10T09:28:42;16.02;;;6.32;;
39674;SDS011;27790;50.840;4.386;2024-01-10T09:31:08;18.20;;;7.00;;
39674;SDS011;27790;50.840;4.386;2024-01-10T09:33:34;13.82;;;6.30;;
39674;SDS011;27790;50.840;4.386;2024-01-10T09:36:00;15.15;;;6.85;;
39674;SDS011;27790;50.840;4.386;2024-01-10T09:38:25;15.05;;;6.95;;
39674;SDS011;27790;50.840;4.386;2024-01-10T09:40:51;16.10;;;6.97;;
39674;SDS011;27790;50.840;4.386;2024-01-10T09:43:22;16.52;;;7.20;;
39674;SDS011;27790;50.840;4.386;2024-01-10T09:45:48;13.85;;;6.95;;
39674;SDS011;27790;50.840;4.386;2024-01-10T09:48:15;19.08;;;6.50;;
39674;SDS011;27790;50.840;4.386;2024-01-10T09:50:41;13.00;;;6.03;;
39674;SDS011;27790;50.840;4.386;2024-01-10T09:53:06;14.10;;;7.25;;
39674;SDS011;27790;50.840;4.386;2024-01-10T09:55:35;23.55;;;8.13;;
39674;SDS011;27790;50.840;4.386;2024-01-10T09:58:05;15.88;;;7.82;;
39674;SDS011;27790;50.840;4.386;2024-01-10T10:00:33;17.70;;;7.53;;
39674;SDS011;27790;50.840;4.386;2024-01-10T10:03:04;18.23;;;7.22;;
39674;SDS011;27790;50.840;4.386;2024-01-10T10:05:32;14.63;;;7.57;;
39674;SDS011;27790;50.840;4.386;2024-01-10T10:07:59;12.82;;;6.40;;
39674;SDS011;27790;50.840;4.386;2024-01-10T10:10:28;12.95;;;7.50;;
39674;SDS011;27790;50.840;4.386;2024-01-10T10:12:53;21.52;;;8.45;;
39674;SDS011;27790;50.840;4.386;2024-01-10T10:15:23;31.92;;;8.65;;
39674;SDS011;27790;50.840;4.386;2024-01-10T10:17:51;18.67;;;7.00;;
39674;SDS011;27790;50.840;4.386;2024-01-10T10:23:04;18.10;;;7.43;;
39674;SDS011;27790;50.840;4.386;2024-01-10T10:25:31;19.55;;;7.22;;
39674;SDS011;27790;50.840;4.386;2024-01-10T10:27:59;16.05;;;7.50;;
39674;SDS011;27790;50.840;4.386;2024-01-10T10:30:26;15.90;;;7.60;;
39674;SDS011;27790;50.840;4.386;2024-01-10T10:32:56;16.67;;;7.18;;
39674;SDS011;27790;50.840;4.386;2024-01-10T10:35:21;18.90;;;7.22;;
39674;SDS011;27790;50.840;4.386;2024-01-10T10:37:48;15.95;;;6.75;;
39674;SDS011;27790;50.840;4.386;2024-01-10T10:40:15;15.07;;;7.60;;
39674;SDS011;27790;50.840;4.386;2024-01-10T10:42:43;16.05;;;7.40;;
39674;SDS011;27790;50.840;4.386;2024-01-10T10:45:22;17.80;;;7.53;;
39674;SDS011;27790;50.840;4.386;2024-01-10T10:47:58;15.32;;;8.43;;
39674;SDS011;27790;50.840;4.386;2024-01-10T10:50:27;20.23;;;7.97;;
39674;SDS011;27790;50.840;4.386;2024-01-10T10:52:54;19.30;;;7.80;;
39674;SDS011;27790;50.840;4.386;2024-01-10T10:55:21;20.33;;;8.25;;
39674;SDS011;27790;50.840;4.386;2024-01-10T10:57:48;16.08;;;7.18;;
39674;SDS011;27790;50.840;4.386;2024-01-10T11:00:15;23.23;;;9.68;;
39674;SDS011;27790;50.840;4.386;2024-01-10T11:02:44;23.48;;;7.68;;
39674;SDS011;27790;50.840;4.386;2024-01-10T11:05:10;18.77;;;7.57;;
39674;SDS011;27790;50.840;4.386;2024-01-10T11:07:37;18.92;;;8.52;;
39674;SDS011;27790;50.840;4.386;2024-01-10T11:10:08;19.08;;;9.13;;
39674;SDS011;27790;50.840;4.386;2024-01-10T11:18:12;15.05;;;7.47;;
39674;SDS011;27790;50.840;4.386;2024-01-10T11:23:49;18.25;;;9.13;;
39674;SDS011;27790;50.840;4.386;2024-01-10T11:26:15;16.13;;;8.38;;
39674;SDS011;27790;50.840;4.386;2024-01-10T11:28:41;19.02;;;8.73;;
39674;SDS011;27790;50.840;4.386;2024-01-10T11:31:07;19.23;;;8.48;;
39674;SDS011;27790;50.840;4.386;2024-01-10T11:33:35;16.60;;;8.82;;
39674;SDS011;27790;50.840;4.386;2024-01-10T11:36:08;20.13;;;8.80;;
39674;SDS011;27790;50.840;4.386;2024-01-10T11:38:47;15.40;;;7.80;;
39674;SDS011;27790;50.840;4.386;2024-01-10T11:41:35;14.98;;;7.22;;
39674;SDS011;27790;50.840;4.386;2024-01-10T11:46:39;14.82;;;7.97;;
39674;SDS011;27790;50.840;4.386;2024-01-10T11:49:13;24.48;;;8.65;;
39674;SDS011;27790;50.840;4.386;2024-01-10T11:51:43;14.75;;;8.35;;
39674;SDS011;27790;50.840;4.386;2024-01-10T11:54:10;16.77;;;8.60;;
39674;SDS011;27790;50.840;4.386;2024-01-10T11:56:39;24.55;;;8.82;;
39674;SDS011;27790;50.840;4.386;2024-01-10T11:59:06;13.95;;;7.65;;
39674;SDS011;27790;50.840;4.386;2024-01-10T12:01:34;15.93;;;8.65;;
39674;SDS011;27790;50.840;4.386;2024-01-10T12:04:01;18.02;;;8.20;;
39674;SDS011;27790;50.840;4.386;2024-01-10T12:06:34;20.50;;;8.45;;
39674;SDS011;27790;50.840;4.386;2024-01-10T12:09:01;13.77;;;7.15;;
39674;SDS011;27790;50.840;4.386;2024-01-10T12:11:33;14.85;;;7.57;;
39674;SDS011;27790;50.840;4.386;2024-01-10T12:13:59;18.05;;;8.18;;
39674;SDS011;27790;50.840;4.386;2024-01-10T12:16:25;17.77;;;8.27;;
39674;SDS011;27790;50.840;4.386;2024-01-10T12:18:51;24.42;;;7.53;;
39674;SDS011;27790;50.840;4.386;2024-01-10T12:21:16;23.13;;;7.85;;
39674;SDS011;27790;50.840;4.386;2024-01-10T12:23:42;15.50;;;7.70;;
39674;SDS011;27790;50.840;4.386;2024-01-10T12:26:10;17.35;;;8.43;;
39674;SDS011;27790;50.840;4.386;2024-01-10T12:28:38;17.35;;;8.38;;
39674;SDS011;27790;50.840;4.386;2024-01-10T12:31:04;16.58;;;7.78;;
39674;SDS011;27790;50.840;4.386;2024-01-10T12:33:33;17.58;;;9.52;;
39674;SDS011;27790;50.840;4.386;2024-01-10T12:36:11;14.82;;;7.78;;
39674;SDS011;27790;50.840;4.386;2024-01-10T12:38:40;20.25;;;8.75;;
39674;SDS011;27790;50.840;4.386;2024-01-10T12:41:05;16.75;;;8.63;;
39674;SDS011;27790;50.840;4.386;2024-01-10T12:43:33;17.90;;;7.90;;
39674;SDS011;27790;50.840;4.386;2024-01-10T12:48:29;20.95;;;8.63;;
39674;SDS011;27790;50.840;4.386;2024-01-10T12:50:55;22.33;;;9.07;;
39674;SDS011;27790;50.840;4.386;2024-01-10T12:53:22;20.10;;;8.43;;
39674;SDS011;27790;50.840;4.386;2024-01-10T12:55:47;16.70;;;7.47;;
39674;SDS011;27790;50.840;4.386;2024-01-10T12:58:13;16.35;;;7.45;;
39674;SDS011;27790;50.840;4.386;2024-01-10T13:00:39;21.00;;;9.30;;
39674;SDS011;27790;50.840;4.386;2024-01-10T13:03:05;18.98;;;7.78;;
39674;SDS011;27790;50.840;4.386;2024-01-10T13:05:31;17.25;;;7.93;;
39674;SDS011;27790;50.840;4.386;2024-01-10T13:07:56;17.35;;;8.55;;
39674;SDS011;27790;50.840;4.386;2024-01-10T13:10:22;16.58;;;8.07;;
39674;SDS011;27790;50.840;4.386;2024-01-10T13:12:47;17.45;;;8.20;;
39674;SDS011;27790;50.840;4.386;2024-01-10T13:15:13;18.30;;;8.35;;
39674;SDS011;27790;50.840;4.386;2024-01-10T13:17:39;18.58;;;8.70;;
39674;SDS011;27790;50.840;4.386;2024-01-10T13:20:05;24.20;;;10.13;;
39674;SDS011;27790;50.840;4.386;2024-01-10T13:22:31;19.08;;;8.52;;
39674;SDS011;27790;50.840;4.386;2024-01-10T13:24:56;18.20;;;8.68;;
39674;SDS011;27790;50.840;4.386;2024-01-10T13:27:22;21.13;;;9.32;;
39674;SDS011;27790;50.840;4.386;2024-01-10T13:29:47;15.85;;;8.18;;
39674;SDS011;27790;50.840;4.386;2024-01-10T13:32:13;20.13;;;9.13;;
39674;SDS011;27790;50.840;4.386;2024-01-10T13:34:40;23.00;;;9.13;;
39674;SDS011;27790;50.840;4.386;2024-01-10T13:37:06;16.08;;;8.70;;
39674;SDS011;27790;50.840;4.386;2024-01-10T13:39:32;19.25;;;8.95;;
39674;SDS011;27790;50.840;4.386;2024-01-10T13:41:58;15.90;;;8.85;;
39674;SDS011;27790;50.840;4.386;2024-01-10T13:44:23;16.58;;;8.93;;
39674;SDS011;27790;50.840;4.386;2024-01-10T13:46:49;19.73;;;8.30;;
39674;SDS011;27790;50.840;4.386;2024-01-10T13:49:16;19.13;;;9.10;;
39674;SDS011;27790;50.840;4.386;2024-01-10T13:51:41;15.60;;;7.95;;
39674;SDS011;27790;50.840;4.386;2024-01-10T13:54:07;20.23;;;9.50;;
39674;SDS011;27790;50.840;4.386;2024-01-10T13:56:33;18.77;;;8.05;;
39674;SDS011;27790;50.840;4.386;2024-01-10T13:58:59;19.75;;;9.05;;
39674;SDS011;27790;50.840;4.386;2024-01-10T14:01:24;18.75;;;8.57;;
39674;SDS011;27790;50.840;4.386;2024-01-10T14:03:51;17.35;;;8.68;;
39674;SDS011;27790;50.840;4.386;2024-01-10T14:06:16;28.58;;;10.60;;
39674;SDS011;27790;50.840;4.386;2024-01-10T14:08:42;18.75;;;8.88;;
39674;SDS011;27790;50.840;4.386;2024-01-10T14:11:08;22.42;;;10.18;;
39674;SDS011;27790;50.840;4.386;2024-01-10T14:13:34;18.05;;;8.65;;
39674;SDS011;27790;50.840;4.386;2024-01-10T14:16:00;19.25;;;9.02;;
39674;SDS011;27790;50.840;4.386;2024-01-10T14:18:26;18.13;;;8.65;;
39674;SDS011;27790;50.840;4.386;2024-01-10T14:20:51;18.85;;;7.88;;
39674;SDS011;27790;50.840;4.386;2024-01-10T14:23:17;23.60;;;9.98;;
39674;SDS011;27790;50.840;4.386;2024-01-10T14:25:42;14.77;;;8.13;;
39674;SDS011;27790;50.840;4.386;2024-01-10T14:28:08;19.50;;;9.32;;
39674;SDS011;27790;50.840;4.386;2024-01-10T14:30:34;18.65;;;9.20;;
39674;SDS011;27790;50.840;4.386;2024-01-10T14:32:59;18.35;;;8.88;;
39674;SDS011;27790;50.840;4.386;2024-01-10T14:35:25;24.73;;;8.52;;
39674;SDS011;27790;50.840;4.386;2024-01-10T14:37:50;18.77;;;9.20;;
39674;SDS011;27790;50.840;4.386;2024-01-10T14:40:16;20.38;;;8.55;;
39674;SDS011;27790;50.840;4.386;2024-01-10T14:42:41;19.85;;;9.10;;
39674;SDS011;27790;50.840;4.386;2024-01-10T14:45:07;22.90;;;9.93;;
39674;SDS011;27790;50.840;4.386;2024-01-10T14:47:33;21.95;;;9.63;;
39674;SDS011;27790;50.840;4.386;2024-01-10T14:50:00;16.10;;;8.05;;
39674;SDS011;27790;50.840;4.386;2024-01-10T14:52:25;20.63;;;9.27;;